createdAt,value
2022-09-12T00:01:20.259Z,21.43
2022-09-12T00:03:47.205Z,21.32
2022-09-12T00:06:22.548Z,21.41
2022-09-12T00:08:49.840Z,21.47
2022-09-12T00:11:16.725Z,21.40
2022-09-12T00:13:43.773Z,21.30
2022-09-12T00:16:23.899Z,21.29
2022-09-12T00:18:51.383Z,21.36
2022-09-12T00:21:18.321Z,21.46
2022-09-12T00:23:45.355Z,21.46
2022-09-12T00:26:12.318Z,21.46
2022-09-12T00:28:39.665Z,21.44
2022-09-12T00:31:14.485Z,21.40
2022-09-12T00:33:41.563Z,21.35
2022-09-12T00:36:26.638Z,21.25
2022-09-12T00:38:54.671Z,21.20
2022-09-12T00:41:28.030Z,21.30
2022-09-12T00:43:59.773Z,21.19
2022-09-12T00:46:36.097Z,21.29
2022-09-12T00:49:13.419Z,21.28
2022-09-12T00:51:41.655Z,21.29
2022-09-12T00:54:11.938Z,21.16
2022-09-12T00:56:39.072Z,21.27
2022-09-12T00:59:10.889Z,21.25
2022-09-12T01:01:37.871Z,21.27
2022-09-12T01:04:04.754Z,21.24
2022-09-12T01:06:40.680Z,21.25
2022-09-12T01:09:08.155Z,21.23
2022-09-12T01:11:36.351Z,21.24
2022-09-12T01:14:05.938Z,21.21
2022-09-12T01:16:34.704Z,21.23
2022-09-12T01:19:38.680Z,21.24
2022-09-12T01:22:20.532Z,21.20
2022-09-12T01:24:58.874Z,21.17
2022-09-12T01:28:03.171Z,21.18
2022-09-12T01:30:52.357Z,21.18
2022-09-12T01:33:30.709Z,21.16
2022-09-12T01:36:31.591Z,21.13
2022-09-12T01:39:04.957Z,21.13
2022-09-12T01:41:31.839Z,21.10
2022-09-12T01:44:21.926Z,21.09
2022-09-12T01:46:53.080Z,21.07
2022-09-12T01:49:56.011Z,21.07
2022-09-12T01:52:28.378Z,21.04
2022-09-12T01:55:20.288Z,21.06
2022-09-12T01:58:04.561Z,21.03
2022-09-12T02:00:35.901Z,21.02
2022-09-12T02:03:10.447Z,21.05
2022-09-12T02:05:47.971Z,21.05
2022-09-12T02:08:17.908Z,21.04
2022-09-12T02:10:52.737Z,21.01
2022-09-12T02:13:23.404Z,21.03
2022-09-12T02:15:53.039Z,21.02
2022-09-12T02:18:19.884Z,21.00
2022-09-12T02:20:48.990Z,20.98
2022-09-12T02:23:21.809Z,20.97
2022-09-12T02:25:49.622Z,20.97
2022-09-12T02:28:25.493Z,20.92
2022-09-12T02:30:56.939Z,20.89
2022-09-12T02:33:27.684Z,20.89
2022-09-12T02:35:59.334Z,20.85
2022-09-12T02:38:44.424Z,20.89
2022-09-12T02:41:12.326Z,20.86
2022-09-12T02:43:39.357Z,20.86
2022-09-12T02:46:07.630Z,20.71
2022-09-12T02:48:35.013Z,20.86
2022-09-12T02:51:01.897Z,20.79
2022-09-12T02:53:28.808Z,20.85
2022-09-12T02:55:55.757Z,20.84
2022-09-12T02:58:25.419Z,20.81
2022-09-12T03:01:24.281Z,20.80
2022-09-12T03:04:05.895Z,20.84
2022-09-12T03:06:57.623Z,20.87
2022-09-12T03:09:44.128Z,20.84
2022-09-12T03:12:16.870Z,20.81
2022-09-12T03:15:03.778Z,20.79
2022-09-12T03:17:31.343Z,20.75
2022-09-12T03:20:06.881Z,20.76
2022-09-12T03:22:50.937Z,20.77
2022-09-12T03:25:32.290Z,20.74
2022-09-12T03:28:10.225Z,20.59
2022-09-12T03:30:41.665Z,20.67
2022-09-12T03:33:11.725Z,20.52
2022-09-12T03:35:38.664Z,20.45
2022-09-12T03:38:08.004Z,20.53
2022-09-12T03:40:35.923Z,20.69
2022-09-12T03:43:03.283Z,20.86
2022-09-12T03:45:30.407Z,21.24
2022-09-12T03:47:57.609Z,21.49
2022-09-12T03:50:24.582Z,21.71
2022-09-12T03:52:51.445Z,21.81
2022-09-12T03:55:18.766Z,22.07
2022-09-12T03:57:45.672Z,22.25
2022-09-12T04:00:17.642Z,22.29
2022-09-12T04:02:46.827Z,22.59
2022-09-12T04:05:13.874Z,22.65
2022-09-12T04:07:40.824Z,22.73
2022-09-12T04:10:09.642Z,22.73
2022-09-12T04:12:37.009Z,22.78
2022-09-12T04:15:04.574Z,22.82
2022-09-12T04:17:33.924Z,22.71
2022-09-12T04:20:01.153Z,22.70
2022-09-12T04:22:28.151Z,22.70
2022-09-12T04:24:55.388Z,22.71
2022-09-12T04:27:22.388Z,22.79
2022-09-12T04:29:49.244Z,22.80
2022-09-12T04:32:16.200Z,22.83
2022-09-12T04:34:43.290Z,22.85
2022-09-12T04:37:11.857Z,22.94
2022-09-12T04:39:39.045Z,22.98
2022-09-12T04:42:06.313Z,23.06
2022-09-12T04:44:33.231Z,23.09
2022-09-12T04:47:00.362Z,23.20
2022-09-12T04:49:27.238Z,23.18
2022-09-12T04:51:55.316Z,23.28
2022-09-12T04:54:22.358Z,23.30
2022-09-12T04:56:49.782Z,23.38
2022-09-12T04:59:20.823Z,23.26
2022-09-12T05:01:48.639Z,23.44
2022-09-12T05:04:15.862Z,23.55
2022-09-12T05:06:42.930Z,23.59
2022-09-12T05:09:11.829Z,23.68
2022-09-12T05:12:03.315Z,23.81
2022-09-12T05:14:27.134Z,23.92
2022-09-12T05:16:54.297Z,23.86
2022-09-12T05:19:21.326Z,24.00
2022-09-12T05:21:48.368Z,24.13
2022-09-12T05:24:15.440Z,24.02
2022-09-12T05:26:42.760Z,24.15
2022-09-12T05:29:09.806Z,24.39
2022-09-12T05:31:37.739Z,24.40
2022-09-12T05:34:07.147Z,24.36
2022-09-12T05:36:34.470Z,24.37
2022-09-12T05:39:01.618Z,24.47
2022-09-12T05:41:30.949Z,24.37
2022-09-12T05:43:59.563Z,24.80
2022-09-12T05:46:28.157Z,24.96
2022-09-12T05:48:56.548Z,25.02
2022-09-12T05:51:25.595Z,25.12
2022-09-12T05:54:00.142Z,25.13
2022-09-12T05:56:34.454Z,25.12
2022-09-12T05:59:03.438Z,25.07
2022-09-12T06:01:31.424Z,25.08
2022-09-12T06:04:01.039Z,24.92
2022-09-12T06:06:29.111Z,25.00
2022-09-12T06:09:00.866Z,24.80
2022-09-12T06:11:29.817Z,25.08
2022-09-12T06:13:58.017Z,25.13
2022-09-12T06:16:27.260Z,25.06
2022-09-12T06:18:55.895Z,25.14
2022-09-12T06:21:23.407Z,25.20
2022-09-12T06:23:50.822Z,25.31
2022-09-12T06:26:18.743Z,25.28
2022-09-12T06:28:45.756Z,25.39
2022-09-12T06:31:17.330Z,25.40
2022-09-12T06:33:46.401Z,25.25
2022-09-12T06:36:16.159Z,25.45
2022-09-12T06:38:43.276Z,25.51
2022-09-12T06:41:12.406Z,25.72
2022-09-12T06:43:40.116Z,25.83
2022-09-12T06:46:07.834Z,25.87
2022-09-12T06:48:38.327Z,25.77
2022-09-12T06:51:11.287Z,25.95
2022-09-12T06:53:38.440Z,25.92
2022-09-12T06:56:24.649Z,25.98
2022-09-12T06:58:51.782Z,25.98
2022-09-12T07:01:36.742Z,25.89
2022-09-12T07:04:04.219Z,25.54
2022-09-12T07:06:39.967Z,25.53
2022-09-12T07:09:08.881Z,25.54
2022-09-12T07:11:36.739Z,25.35
2022-09-12T07:14:05.032Z,25.23
2022-09-12T07:16:32.020Z,25.27
2022-09-12T07:19:00.287Z,25.26
2022-09-12T07:21:27.746Z,25.07
2022-09-12T07:24:00.945Z,25.00
2022-09-12T07:26:29.374Z,24.96
2022-09-12T07:29:12.888Z,24.71
2022-09-12T07:31:44.083Z,24.85
2022-09-12T07:34:11.285Z,24.65
2022-09-12T07:36:39.214Z,24.70
2022-09-12T07:39:06.169Z,24.63
2022-09-12T07:41:36.249Z,24.42
2022-09-12T07:44:03.518Z,24.63
2022-09-12T07:46:31.239Z,24.67
2022-09-12T07:48:58.728Z,24.62
2022-09-12T07:51:26.804Z,24.47
2022-09-12T07:53:53.951Z,24.22
2022-09-12T07:56:22.049Z,23.69
2022-09-12T07:58:51.018Z,23.90
2022-09-12T08:01:23.448Z,23.83
2022-09-12T08:03:59.472Z,23.73
2022-09-12T08:06:27.734Z,23.85
2022-09-12T08:08:55.566Z,23.73
2022-09-12T08:11:22.870Z,23.62
2022-09-12T08:13:55.412Z,23.69
2022-09-12T08:16:24.568Z,23.83
2022-09-12T08:18:51.768Z,23.88
2022-09-12T08:21:28.258Z,23.84
2022-09-12T08:24:00.874Z,23.78
2022-09-12T08:26:28.333Z,23.69
2022-09-12T08:28:55.303Z,23.59
2022-09-12T08:31:23.446Z,23.43
2022-09-12T08:33:50.597Z,23.38
2022-09-12T08:36:20.380Z,23.26
2022-09-12T08:38:48.727Z,23.29
2022-09-12T08:41:18.452Z,23.35
2022-09-12T08:43:54.541Z,23.37
2022-09-12T08:46:28.796Z,23.42
2022-09-12T08:48:56.011Z,23.44
2022-09-12T08:51:23.170Z,23.48
2022-09-12T08:53:50.775Z,23.40
2022-09-12T08:56:17.728Z,23.46
2022-09-12T08:58:45.485Z,23.42
2022-09-12T09:01:21.507Z,23.45
2022-09-12T09:04:01.642Z,23.47
2022-09-12T09:06:37.521Z,23.46
2022-09-12T09:09:07.253Z,23.39
2022-09-12T09:11:44.055Z,23.38
2022-09-12T09:14:50.779Z,23.56
2022-09-12T09:17:45.112Z,23.50
2022-09-12T09:20:30.233Z,23.49
2022-09-12T09:23:13.083Z,23.34
2022-09-12T09:25:44.774Z,23.47
2022-09-12T09:28:17.696Z,23.44
2022-09-12T09:30:45.184Z,23.51
2022-09-12T09:33:23.732Z,23.52
2022-09-12T09:35:56.997Z,23.36
2022-09-12T09:38:49.917Z,23.56
2022-09-12T09:41:48.877Z,23.61
2022-09-12T09:44:15.979Z,23.65
2022-09-12T09:46:42.991Z,23.54
2022-09-12T09:49:14.680Z,23.68
2022-09-12T09:51:41.882Z,23.67
2022-09-12T09:54:17.941Z,23.75
2022-09-12T09:56:45.019Z,23.87
2022-09-12T09:59:30.386Z,24.02
2022-09-12T10:02:04.043Z,24.22
2022-09-12T10:04:41.073Z,24.41
2022-09-12T10:07:18.966Z,24.27
2022-09-12T10:10:07.688Z,24.50
2022-09-12T10:12:34.742Z,24.55
2022-09-12T10:15:03.077Z,24.60
2022-09-12T10:17:42.517Z,24.67
2022-09-12T10:20:40.009Z,24.73
2022-09-12T10:23:19.169Z,24.82
2022-09-12T10:25:48.118Z,24.88
2022-09-12T10:28:29.612Z,24.75
2022-09-12T10:30:56.695Z,24.98
2022-09-12T10:33:24.531Z,24.85
2022-09-12T10:35:51.641Z,24.66
2022-09-12T10:38:28.580Z,24.61
2022-09-12T10:41:00.513Z,24.58
2022-09-12T10:43:31.213Z,24.56
2022-09-12T10:45:59.183Z,24.59
2022-09-12T10:48:30.408Z,24.51
2022-09-12T10:51:00.934Z,24.44
2022-09-12T10:53:41.648Z,24.42
2022-09-12T10:56:11.014Z,24.57
2022-09-12T10:59:05.956Z,24.64
2022-09-12T11:01:32.805Z,24.67
2022-09-12T11:04:20.656Z,24.66
2022-09-12T11:07:16.877Z,24.60
2022-09-12T11:10:19.327Z,24.71
2022-09-12T11:13:10.919Z,24.60
2022-09-12T11:16:10.295Z,24.56
2022-09-12T11:18:37.195Z,24.57
2022-09-12T11:21:23.155Z,24.60
2022-09-12T11:24:15.031Z,24.56
2022-09-12T11:26:51.222Z,24.47
2022-09-12T11:29:21.432Z,24.45
2022-09-12T11:31:51.403Z,24.44
2022-09-12T11:34:25.693Z,24.42
2022-09-12T11:36:58.608Z,24.42
2022-09-12T11:39:37.770Z,24.25
2022-09-12T11:42:05.733Z,24.17
2022-09-12T11:44:40.261Z,24.14
2022-09-12T11:47:08.436Z,24.04
2022-09-12T11:49:38.331Z,23.98
2022-09-12T11:52:11.194Z,24.16
2022-09-12T11:54:41.933Z,24.14
2022-09-12T11:57:19.273Z,24.12
2022-09-12T11:59:54.380Z,24.10
2022-09-12T12:02:34.127Z,23.93
2022-09-12T12:05:20.755Z,24.07
2022-09-12T12:07:58.365Z,24.09
2022-09-12T12:10:39.879Z,24.08
2022-09-12T12:13:35.837Z,24.11
2022-09-12T12:16:16.632Z,23.92
2022-09-12T12:18:43.832Z,23.99
2022-09-12T12:21:32.076Z,23.97
2022-09-12T12:24:04.898Z,23.95
2022-09-12T12:27:00.847Z,23.98
2022-09-12T12:29:44.035Z,23.96
2022-09-12T12:32:11.221Z,24.00
2022-09-12T12:34:42.047Z,24.04
2022-09-12T12:37:25.760Z,24.12
2022-09-12T12:40:02.895Z,24.17
2022-09-12T12:42:32.805Z,24.13
2022-09-12T12:45:03.749Z,24.02
2022-09-12T12:47:40.261Z,24.04
2022-09-12T12:50:10.276Z,24.12
2022-09-12T12:52:53.929Z,24.26
2022-09-12T12:55:23.498Z,24.34
2022-09-12T12:58:14.711Z,24.46
2022-09-12T13:00:41.903Z,24.43
2022-09-12T13:03:29.065Z,24.72
2022-09-12T13:06:00.877Z,24.58
2022-09-12T13:08:32.566Z,24.78
2022-09-12T13:11:01.597Z,24.80
2022-09-12T13:13:51.941Z,24.69
2022-09-12T13:16:34.279Z,24.66
2022-09-12T13:19:17.457Z,24.64
2022-09-12T13:22:07.618Z,24.65
2022-09-12T13:24:35.694Z,24.80
2022-09-12T13:27:02.856Z,24.82
2022-09-12T13:29:29.737Z,24.86
2022-09-12T13:32:00.833Z,24.66
2022-09-12T13:34:31.383Z,24.62
2022-09-12T13:37:13.363Z,24.66
2022-09-12T13:40:01.335Z,24.65
2022-09-12T13:43:00.485Z,24.58
2022-09-12T13:45:27.548Z,24.46
2022-09-12T13:48:02.081Z,24.37
2022-09-12T13:50:32.212Z,24.32
2022-09-12T13:53:03.700Z,24.23
2022-09-12T13:55:39.360Z,24.42
2022-09-12T13:58:15.975Z,24.44
2022-09-12T14:00:42.819Z,24.44
2022-09-12T14:03:44.791Z,24.45
2022-09-12T14:06:12.724Z,24.45
2022-09-12T14:08:41.604Z,24.48
2022-09-12T14:11:11.983Z,24.51
2022-09-12T14:13:41.511Z,24.54
2022-09-12T14:16:10.290Z,24.56
2022-09-12T14:18:37.893Z,24.56
2022-09-12T14:21:12.808Z,24.63
2022-09-12T14:23:43.275Z,24.48
2022-09-12T14:26:12.400Z,24.53
2022-09-12T14:28:42.463Z,24.49
2022-09-12T14:31:15.953Z,24.58
2022-09-12T14:33:47.211Z,24.62
2022-09-12T14:36:24.663Z,24.68
2022-09-12T14:38:55.530Z,24.67
2022-09-12T14:41:27.980Z,24.59
2022-09-12T14:43:57.179Z,24.61
2022-09-12T14:46:32.349Z,24.59
2022-09-12T14:49:06.876Z,24.54
2022-09-12T14:51:34.739Z,24.49
2022-09-12T14:54:01.611Z,24.42
2022-09-12T14:56:42.321Z,24.38
2022-09-12T14:59:35.235Z,24.30
2022-09-12T15:02:14.465Z,24.35
2022-09-12T15:04:42.158Z,24.35
2022-09-12T15:07:34.018Z,24.46
2022-09-12T15:10:02.465Z,24.50
2022-09-12T15:12:29.421Z,24.58
2022-09-12T15:15:18.955Z,24.65
2022-09-12T15:17:45.869Z,24.61
2022-09-12T15:20:13.461Z,24.79
2022-09-12T15:22:40.596Z,24.80
2022-09-12T15:25:07.995Z,24.86
2022-09-12T15:27:34.804Z,24.83
2022-09-12T15:30:02.547Z,24.87
2022-09-12T15:32:29.768Z,24.88
2022-09-12T15:34:57.165Z,24.89
2022-09-12T15:37:24.225Z,24.85
2022-09-12T15:39:51.301Z,24.80
2022-09-12T15:42:19.016Z,24.86
2022-09-12T15:44:45.963Z,24.85
2022-09-12T15:47:13.436Z,24.52
2022-09-12T15:49:40.743Z,24.86
2022-09-12T15:52:08.199Z,24.89
2022-09-12T15:54:36.241Z,24.89
2022-09-12T15:57:03.120Z,24.86
2022-09-12T15:59:31.204Z,24.88
2022-09-12T16:01:58.506Z,24.88
2022-09-12T16:04:27.285Z,24.89
2022-09-12T16:06:54.887Z,24.78
2022-09-12T16:09:22.042Z,24.89
2022-09-12T16:11:48.962Z,24.84
2022-09-12T16:14:16.955Z,24.72
2022-09-12T16:16:43.961Z,24.52
2022-09-12T16:19:10.948Z,24.26
2022-09-12T16:21:37.920Z,24.69
2022-09-12T16:24:04.945Z,24.69
2022-09-12T16:26:31.856Z,24.67
2022-09-12T16:28:59.050Z,24.53
2022-09-12T16:31:26.408Z,24.57
2022-09-12T16:33:53.452Z,24.41
2022-09-12T16:36:21.238Z,24.56
2022-09-12T16:38:49.470Z,24.41
2022-09-12T16:41:17.007Z,24.51
2022-09-12T16:43:44.067Z,24.52
2022-09-12T16:46:19.014Z,24.47
2022-09-12T16:48:52.352Z,24.49
2022-09-12T16:51:26.864Z,24.45
2022-09-12T16:53:54.540Z,24.48
2022-09-12T16:56:21.448Z,24.38
2022-09-12T16:58:48.363Z,24.45
2022-09-12T17:01:17.444Z,24.47
2022-09-12T17:03:44.307Z,24.47
2022-09-12T17:06:12.714Z,24.45
2022-09-12T17:08:41.318Z,24.47
2022-09-12T17:11:12.523Z,24.39
2022-09-12T17:14:00.589Z,24.35
2022-09-12T17:16:27.116Z,24.36
2022-09-12T17:18:54.070Z,24.43
2022-09-12T17:21:21.294Z,24.42
2022-09-12T17:23:48.394Z,24.41
2022-09-12T17:26:15.599Z,24.38
2022-09-12T17:28:42.535Z,24.36
2022-09-12T17:31:10.954Z,24.36
2022-09-12T17:33:39.086Z,24.21
2022-09-12T17:36:16.653Z,24.30
2022-09-12T17:38:44.493Z,24.28
2022-09-12T17:41:19.617Z,24.26
2022-09-12T17:43:51.354Z,24.23
2022-09-12T17:46:19.374Z,24.21
2022-09-12T17:48:54.149Z,24.04
2022-09-12T17:51:21.705Z,24.16
2022-09-12T17:53:48.686Z,24.15
2022-09-12T17:56:15.708Z,24.00
2022-09-12T17:58:42.576Z,24.09
2022-09-12T18:01:33.887Z,24.09
2022-09-12T18:04:01.511Z,23.77
2022-09-12T18:06:28.723Z,24.00
2022-09-12T18:08:55.743Z,23.98
2022-09-12T18:11:22.615Z,23.95
2022-09-12T18:13:49.548Z,23.90
2022-09-12T18:16:17.608Z,23.88
2022-09-12T18:18:44.553Z,23.86
2022-09-12T18:21:11.783Z,23.86
2022-09-12T18:23:38.738Z,23.82
2022-09-12T18:26:07.306Z,23.79
2022-09-12T18:28:38.300Z,23.75
2022-09-12T18:31:06.722Z,23.70
2022-09-12T18:33:34.022Z,23.68
2022-09-12T18:36:07.513Z,23.66
2022-09-12T18:38:34.367Z,23.59
2022-09-12T18:41:05.096Z,23.47
2022-09-12T18:43:32.139Z,23.50
2022-09-12T18:46:05.638Z,23.54
2022-09-12T18:48:32.940Z,23.49
2022-09-12T18:51:19.069Z,23.48
2022-09-12T18:53:56.375Z,23.44
2022-09-12T18:56:24.415Z,23.43
2022-09-12T18:58:52.952Z,23.43
2022-09-12T19:01:38.760Z,23.40
2022-09-12T19:04:07.757Z,23.36
2022-09-12T19:06:44.692Z,23.33
2022-09-12T19:09:12.320Z,23.28
2022-09-12T19:11:40.288Z,23.16
2022-09-12T19:14:07.784Z,23.23
2022-09-12T19:16:34.846Z,23.20
2022-09-12T19:19:02.672Z,23.11
2022-09-12T19:21:30.420Z,23.14
2022-09-12T19:24:01.625Z,23.14
2022-09-12T19:26:28.487Z,23.11
2022-09-12T19:28:55.622Z,23.08
2022-09-12T19:31:23.339Z,23.07
2022-09-12T19:33:50.548Z,23.08
2022-09-12T19:36:41.259Z,23.06
2022-09-12T19:39:05.821Z,22.89
2022-09-12T19:41:33.011Z,23.02
2022-09-12T19:43:59.894Z,22.99
2022-09-12T19:46:26.924Z,22.86
2022-09-12T19:48:54.129Z,22.92
2022-09-12T19:51:21.338Z,22.86
2022-09-12T19:53:50.200Z,22.82
2022-09-12T19:56:17.153Z,22.76
2022-09-12T19:58:45.374Z,22.83
2022-09-12T20:01:13.900Z,22.80
2022-09-12T20:03:41.212Z,22.31
2022-09-12T20:06:09.753Z,22.59
2022-09-12T20:08:37.834Z,22.36
2022-09-12T20:11:04.849Z,22.53
2022-09-12T20:13:31.707Z,22.38
2022-09-12T20:16:06.565Z,22.58
2022-09-12T20:18:33.644Z,22.55
2022-09-12T20:21:11.229Z,22.28
2022-09-12T20:23:38.165Z,22.45
2022-09-12T20:26:05.251Z,22.48
2022-09-12T20:28:32.310Z,22.47
2022-09-12T20:31:07.348Z,22.45
2022-09-12T20:33:34.408Z,22.42
2022-09-12T20:36:10.892Z,22.40
2022-09-12T20:38:37.947Z,22.38
2022-09-12T20:41:06.048Z,22.34
2022-09-12T20:43:32.909Z,22.28
2022-09-12T20:45:59.865Z,22.16
2022-09-12T20:48:26.936Z,22.19
2022-09-12T20:50:53.750Z,22.18
2022-09-12T20:53:20.953Z,22.18
2022-09-12T20:55:51.562Z,22.07
2022-09-12T20:58:19.347Z,22.10
2022-09-12T21:00:46.816Z,22.05
2022-09-12T21:03:14.493Z,21.92
2022-09-12T21:05:45.037Z,21.88
2022-09-12T21:08:12.139Z,21.97
2022-09-12T21:10:42.587Z,21.95
2022-09-12T21:13:10.435Z,21.90
2022-09-12T21:15:38.715Z,21.88
2022-09-12T21:18:05.743Z,21.85
2022-09-12T21:20:32.623Z,21.81
2022-09-12T21:22:59.730Z,21.78
2022-09-12T21:25:28.524Z,21.77
2022-09-12T21:27:55.410Z,21.64
2022-09-12T21:30:22.527Z,21.71
2022-09-12T21:32:49.342Z,21.67
2022-09-12T21:35:16.357Z,21.63
2022-09-12T21:37:43.320Z,21.62
2022-09-12T21:40:10.463Z,21.58
2022-09-12T21:42:37.377Z,21.56
2022-09-12T21:45:04.703Z,21.35
2022-09-12T21:47:31.507Z,21.48
2022-09-12T21:49:58.673Z,21.46
2022-09-12T21:52:25.731Z,21.43
2022-09-12T21:54:52.550Z,21.41
2022-09-12T21:57:19.468Z,21.35
2022-09-12T21:59:46.418Z,21.33
2022-09-12T22:02:13.844Z,21.29
2022-09-12T22:04:40.715Z,21.26
2022-09-12T22:07:07.962Z,21.22
2022-09-12T22:09:34.994Z,21.06
2022-09-12T22:12:02.421Z,21.21
2022-09-12T22:14:29.716Z,21.17
2022-09-12T22:16:56.915Z,21.14
2022-09-12T22:19:23.776Z,21.11
2022-09-12T22:22:09.321Z,21.10
2022-09-12T22:24:36.197Z,20.96
2022-09-12T22:27:04.658Z,21.08
2022-09-12T22:29:31.703Z,21.04
2022-09-12T22:31:59.145Z,21.00
2022-09-12T22:34:26.603Z,20.98
2022-09-12T22:36:53.480Z,20.96
2022-09-12T22:39:20.333Z,20.93
2022-09-12T22:41:47.188Z,20.89
2022-09-12T22:44:14.302Z,20.88
2022-09-12T22:46:41.392Z,20.85
2022-09-12T22:49:08.275Z,20.83
2022-09-12T22:51:35.370Z,20.77
2022-09-12T22:54:02.329Z,20.76
2022-09-12T22:56:29.254Z,20.71
2022-09-12T22:58:56.133Z,20.69
2022-09-12T23:01:23.983Z,20.65
2022-09-12T23:03:51.230Z,20.59
2022-09-12T23:06:18.167Z,20.56
2022-09-12T23:08:45.042Z,20.55
2022-09-12T23:11:14.006Z,20.53
2022-09-12T23:13:44.853Z,20.52
2022-09-12T23:16:22.789Z,20.51
2022-09-12T23:18:49.894Z,20.47
2022-09-12T23:21:17.956Z,20.45
2022-09-12T23:23:44.810Z,20.42
2022-09-12T23:26:17.313Z,20.37
2022-09-12T23:28:48.983Z,20.36
2022-09-12T23:31:17.152Z,20.32
2022-09-12T23:33:44.347Z,20.30
2022-09-12T23:36:14.389Z,20.10
2022-09-12T23:38:42.515Z,20.26
2022-09-12T23:41:09.501Z,20.25
2022-09-12T23:43:36.345Z,20.20
2022-09-12T23:46:04.609Z,20.18
2022-09-12T23:48:32.076Z,20.18
2022-09-12T23:50:59.247Z,20.14
2022-09-12T23:53:26.086Z,20.11
2022-09-12T23:55:52.942Z,20.08
2022-09-12T23:58:21.586Z,20.05
